createdAt,value
2022-12-01T00:00:51.922Z,96380
2022-12-01T00:01:52.062Z,96381
2022-12-01T00:02:52.069Z,96376
2022-12-01T00:03:51.903Z,96378
2022-12-01T00:04:51.951Z,96376
2022-12-01T00:06:51.955Z,96378
2022-12-01T00:07:52.026Z,96378
2022-12-01T00:08:51.961Z,96378
2022-12-01T00:09:51.970Z,96375
2022-12-01T00:10:51.910Z,96375
2022-12-01T00:11:51.955Z,96374
2022-12-01T00:12:51.948Z,96374
2022-12-01T00:13:51.947Z,96370
2022-12-01T00:14:51.966Z,96375
2022-12-01T00:15:51.911Z,96372
2022-12-01T00:16:51.973Z,96369
2022-12-01T00:17:51.996Z,96373
2022-12-01T00:18:51.979Z,96370
2022-12-01T00:19:51.997Z,96372
2022-12-01T00:20:51.939Z,96370
2022-12-01T00:21:51.984Z,96368
2022-12-01T00:22:51.987Z,96369
2022-12-01T00:23:51.984Z,96368
2022-12-01T00:24:51.964Z,96368
2022-12-01T00:25:51.970Z,96371
2022-12-01T00:28:51.997Z,96367
2022-12-01T00:29:51.965Z,96368
2022-12-01T00:31:52.087Z,96365
2022-12-01T00:32:51.999Z,96370
2022-12-01T00:33:51.960Z,96368
2022-12-01T00:35:52.062Z,96364
2022-12-01T00:36:52.018Z,96364
2022-12-01T00:38:51.985Z,96368
2022-12-01T00:39:52.054Z,96371
2022-12-01T00:40:52.043Z,96370
2022-12-01T00:41:52.023Z,96370
2022-12-01T00:42:51.986Z,96371
2022-12-01T00:43:52.050Z,96371
2022-12-01T00:44:52.043Z,96371
2022-12-01T00:45:52.140Z,96370
2022-12-01T00:46:52.053Z,96369
2022-12-01T00:48:52.010Z,96368
2022-12-01T00:50:52.071Z,96365
2022-12-01T00:51:52.048Z,96365
2022-12-01T00:52:52.056Z,96368
2022-12-01T00:53:52.055Z,96368
2022-12-01T00:54:52.065Z,96367
2022-12-01T00:55:52.065Z,96371
2022-12-01T00:56:52.050Z,96371
2022-12-01T00:57:52.079Z,96373
2022-12-01T00:58:52.012Z,96373
2022-12-01T00:59:52.033Z,96371
2022-12-01T01:00:52.124Z,96371
2022-12-01T01:01:52.091Z,96371
2022-12-01T01:02:52.110Z,96368
2022-12-01T01:03:52.043Z,96372
2022-12-01T01:05:52.132Z,96371
2022-12-01T01:06:52.069Z,96371
2022-12-01T01:07:52.110Z,96373
2022-12-01T01:08:52.092Z,96374
2022-12-01T01:09:52.271Z,96379
2022-12-01T01:10:52.096Z,96376
2022-12-01T01:11:52.056Z,96376
2022-12-01T01:12:52.092Z,96377
2022-12-01T01:13:52.106Z,96380
2022-12-01T01:14:52.052Z,96380
2022-12-01T01:16:52.137Z,96377
2022-12-01T01:17:52.125Z,96377
2022-12-01T01:19:52.114Z,96380
2022-12-01T01:20:52.148Z,96381
2022-12-01T01:22:52.132Z,96379
2022-12-01T01:23:52.127Z,96377
2022-12-01T01:24:52.086Z,96377
2022-12-01T01:25:52.091Z,96381
2022-12-01T01:26:52.088Z,96381
2022-12-01T01:27:52.120Z,96377
2022-12-01T01:28:52.134Z,96382
2022-12-01T01:29:52.100Z,96380
2022-12-01T01:30:52.173Z,96381
2022-12-01T01:31:52.109Z,96381
2022-12-01T01:32:52.097Z,96381
2022-12-01T01:33:52.181Z,96378
2022-12-01T01:35:52.101Z,96380
2022-12-01T01:36:52.131Z,96381
2022-12-01T01:37:52.150Z,96379
2022-12-01T01:38:52.203Z,96383
2022-12-01T01:39:52.163Z,96383
2022-12-01T01:40:52.132Z,96382
2022-12-01T01:41:52.160Z,96378
2022-12-01T01:42:52.162Z,96378
2022-12-01T01:43:52.163Z,96384
2022-12-01T01:44:52.186Z,96384
2022-12-01T01:45:52.268Z,96381
2022-12-01T01:46:52.172Z,96384
2022-12-01T01:47:52.184Z,96384
2022-12-01T01:48:52.208Z,96384
2022-12-01T01:49:52.175Z,96384
2022-12-01T01:50:52.221Z,96383
2022-12-01T01:51:52.225Z,96383
2022-12-01T01:52:52.163Z,96384
2022-12-01T01:53:52.209Z,96383
2022-12-01T01:54:52.201Z,96378
2022-12-01T01:55:52.173Z,96378
2022-12-01T01:56:52.210Z,96379
2022-12-01T01:57:52.176Z,96379
2022-12-01T01:58:52.227Z,96377
2022-12-01T01:59:52.233Z,96378
2022-12-01T02:00:52.249Z,96379
2022-12-01T02:01:52.195Z,96378
2022-12-01T02:02:52.306Z,96377
2022-12-01T02:03:52.233Z,96380
2022-12-01T02:04:52.233Z,96380
2022-12-01T02:05:52.225Z,96379
2022-12-01T02:06:52.231Z,96378
2022-12-01T02:07:52.462Z,96372
2022-12-01T02:08:52.221Z,96372
2022-12-01T02:09:52.274Z,96375
2022-12-01T02:10:52.250Z,96378
2022-12-01T02:11:52.209Z,96378
2022-12-01T02:12:52.247Z,96377
2022-12-01T02:13:52.246Z,96378
2022-12-01T02:14:52.239Z,96379
2022-12-01T02:15:52.247Z,96379
2022-12-01T02:17:52.244Z,96378
2022-12-01T02:18:52.222Z,96377
2022-12-01T02:19:52.234Z,96379
2022-12-01T02:20:52.228Z,96377
2022-12-01T02:21:52.233Z,96376
2022-12-01T02:22:53.765Z,96375
2022-12-01T02:23:52.257Z,96375
2022-12-01T02:24:52.222Z,96369
2022-12-01T02:25:52.308Z,96369
2022-12-01T02:26:52.251Z,96369
2022-12-01T02:27:52.264Z,96372
2022-12-01T02:28:52.283Z,96372
2022-12-01T02:29:52.283Z,96372
2022-12-01T02:31:52.268Z,96372
2022-12-01T02:32:52.315Z,96367
2022-12-01T02:33:52.303Z,96367
2022-12-01T02:34:52.283Z,96365
2022-12-01T02:35:52.283Z,96368
2022-12-01T02:38:52.298Z,96363
2022-12-01T02:39:52.325Z,96362
2022-12-01T02:40:52.302Z,96360
2022-12-01T02:41:52.272Z,96360
2022-12-01T02:43:52.322Z,96361
2022-12-01T02:44:52.311Z,96363
2022-12-01T02:45:52.374Z,96361
2022-12-01T02:47:52.309Z,96356
2022-12-01T02:48:52.295Z,96356
2022-12-01T02:49:52.473Z,96356
2022-12-01T02:50:52.321Z,96355
2022-12-01T02:51:52.296Z,96358
2022-12-01T02:52:52.290Z,96359
2022-12-01T02:53:52.294Z,96362
2022-12-01T02:54:52.305Z,96363
2022-12-01T02:55:52.366Z,96361
2022-12-01T02:56:52.308Z,96363
2022-12-01T02:57:52.340Z,96363
2022-12-01T02:59:52.368Z,96361
2022-12-01T03:00:52.384Z,96361
2022-12-01T03:01:52.450Z,96361
2022-12-01T03:02:52.392Z,96363
2022-12-01T03:03:52.388Z,96363
2022-12-01T03:04:52.323Z,96362
2022-12-01T03:05:52.408Z,96361
2022-12-01T03:07:52.435Z,96358
2022-12-01T03:09:52.364Z,96359
2022-12-01T03:10:52.459Z,96363
2022-12-01T03:11:52.365Z,96362
2022-12-01T03:12:52.339Z,96364
2022-12-01T03:13:52.410Z,96361
2022-12-01T03:14:52.344Z,96361
2022-12-01T03:15:52.477Z,96364
2022-12-01T03:16:52.375Z,96358
2022-12-01T03:17:52.365Z,96358
2022-12-01T03:18:52.431Z,96360
2022-12-01T03:19:52.368Z,96362
2022-12-01T03:20:52.395Z,96357
2022-12-01T03:21:52.349Z,96357
2022-12-01T03:22:52.412Z,96358
2022-12-01T03:25:52.451Z,96353
2022-12-01T03:26:52.427Z,96359
2022-12-01T03:28:19.687Z,96357
2022-12-01T03:28:52.451Z,96354
2022-12-01T03:29:52.408Z,96354
2022-12-01T03:30:52.512Z,96355
2022-12-01T03:31:52.416Z,96355
2022-12-01T03:32:52.415Z,96353
2022-12-01T03:33:52.466Z,96354
2022-12-01T03:34:52.442Z,96353
2022-12-01T03:35:52.468Z,96353
2022-12-01T03:36:52.448Z,96354
2022-12-01T03:37:52.401Z,96355
2022-12-01T03:38:52.466Z,96355
2022-12-01T03:39:57.205Z,96349
2022-12-01T03:40:52.440Z,96349
2022-12-01T03:41:52.414Z,96353
2022-12-01T03:42:52.412Z,96350
2022-12-01T03:43:52.493Z,96348
2022-12-01T03:44:52.457Z,96348
2022-12-01T03:45:52.564Z,96351
2022-12-01T03:46:52.428Z,96346
2022-12-01T03:47:52.461Z,96349
2022-12-01T03:48:52.495Z,96352
2022-12-01T03:49:52.457Z,96352
2022-12-01T03:50:52.473Z,96352
2022-12-01T03:51:52.488Z,96352
2022-12-01T03:52:52.494Z,96354
2022-12-01T03:53:52.492Z,96351
2022-12-01T03:54:52.454Z,96351
2022-12-01T03:56:52.500Z,96352
2022-12-01T03:58:52.519Z,96354
2022-12-01T03:59:52.495Z,96354
2022-12-01T04:00:52.461Z,96358
2022-12-01T04:01:52.552Z,96359
2022-12-01T04:02:52.507Z,96359
2022-12-01T04:03:52.491Z,96358
2022-12-01T04:04:52.465Z,96361
2022-12-01T04:05:52.528Z,96356
2022-12-01T04:06:52.535Z,96357
2022-12-01T04:07:52.567Z,96359
2022-12-01T04:08:52.509Z,96358
2022-12-01T04:09:52.511Z,96360
2022-12-01T04:10:52.550Z,96360
2022-12-01T04:11:52.512Z,96360
2022-12-01T04:12:52.505Z,96358
2022-12-01T04:13:52.534Z,96358
2022-12-01T04:15:52.581Z,96361
2022-12-01T04:16:52.579Z,96360
2022-12-01T04:17:52.554Z,96360
2022-12-01T04:18:52.555Z,96357
2022-12-01T04:19:52.502Z,96357
2022-12-01T04:20:52.498Z,96359
2022-12-01T04:21:52.563Z,96359
2022-12-01T04:22:52.566Z,96359
2022-12-01T04:23:52.516Z,96360
2022-12-01T04:24:52.554Z,96358
2022-12-01T04:25:52.577Z,96362
2022-12-01T04:26:52.586Z,96362
2022-12-01T04:27:52.555Z,96362
2022-12-01T04:28:52.543Z,96362
2022-12-01T04:29:52.568Z,96362
2022-12-01T04:30:52.594Z,96362
2022-12-01T04:31:52.651Z,96361
2022-12-01T04:32:52.543Z,96361
2022-12-01T04:33:52.586Z,96365
2022-12-01T04:34:52.577Z,96363
2022-12-01T04:36:52.578Z,96361
2022-12-01T04:37:52.600Z,96367
2022-12-01T04:38:52.583Z,96364
2022-12-01T04:39:52.792Z,96367
2022-12-01T04:40:52.592Z,96366
2022-12-01T04:41:52.591Z,96365
2022-12-01T04:42:52.602Z,96368
2022-12-01T04:43:52.588Z,96369
2022-12-01T04:44:52.651Z,96373
2022-12-01T04:45:52.614Z,96373
2022-12-01T04:46:52.745Z,96375
2022-12-01T04:47:52.588Z,96377
2022-12-01T04:48:52.574Z,96372
2022-12-01T04:49:52.604Z,96375
2022-12-01T04:50:52.622Z,96371
2022-12-01T04:51:52.619Z,96377
2022-12-01T04:52:52.627Z,96372
2022-12-01T04:53:52.612Z,96374
2022-12-01T04:55:52.653Z,96376
2022-12-01T04:56:52.620Z,96380
2022-12-01T04:57:52.604Z,96377
2022-12-01T04:58:52.593Z,96377
2022-12-01T04:59:52.687Z,96379
2022-12-01T05:00:52.637Z,96380
2022-12-01T05:01:52.756Z,96379
2022-12-01T05:02:52.614Z,96379
2022-12-01T05:03:52.606Z,96379
2022-12-01T05:04:52.677Z,96380
2022-12-01T05:05:52.650Z,96380
2022-12-01T05:06:52.661Z,96380
2022-12-01T05:07:52.745Z,96380
2022-12-01T05:08:52.625Z,96382
2022-12-01T05:09:52.668Z,96376
2022-12-01T05:10:52.645Z,96375
2022-12-01T05:11:52.672Z,96375
2022-12-01T05:12:52.670Z,96376
2022-12-01T05:13:52.808Z,96377
2022-12-01T05:14:52.699Z,96376
2022-12-01T05:15:52.675Z,96378
2022-12-01T05:18:52.731Z,96380
2022-12-01T05:19:52.739Z,96380
2022-12-01T05:20:52.696Z,96380
2022-12-01T05:21:52.660Z,96384
2022-12-01T05:23:05.438Z,96380
2022-12-01T05:23:52.694Z,96380
2022-12-01T05:24:52.739Z,96382
2022-12-01T05:25:52.699Z,96382
2022-12-01T05:26:52.701Z,96382
2022-12-01T05:27:52.710Z,96384
2022-12-01T05:30:52.797Z,96382
2022-12-01T05:31:52.732Z,96382
2022-12-01T05:32:52.721Z,96379
2022-12-01T05:33:52.718Z,96379
2022-12-01T05:34:52.715Z,96386
2022-12-01T05:35:52.712Z,96386
2022-12-01T05:36:52.726Z,96383
2022-12-01T05:37:52.768Z,96387
2022-12-01T05:38:52.684Z,96387
2022-12-01T05:39:52.743Z,96387
2022-12-01T05:40:52.720Z,96385
2022-12-01T05:41:52.709Z,96385
2022-12-01T05:42:52.729Z,96386
2022-12-01T05:43:52.697Z,96386
2022-12-01T05:44:52.736Z,96391
2022-12-01T05:45:52.765Z,96391
2022-12-01T05:46:52.728Z,96386
2022-12-01T05:47:52.743Z,96384
2022-12-01T05:48:52.747Z,96384
2022-12-01T05:49:52.752Z,96386
2022-12-01T05:50:52.724Z,96386
2022-12-01T05:51:52.721Z,96385
2022-12-01T05:52:52.774Z,96385
2022-12-01T05:53:52.738Z,96385
2022-12-01T05:54:52.771Z,96384
2022-12-01T05:56:52.751Z,96384
2022-12-01T05:57:52.808Z,96382
2022-12-01T06:00:52.789Z,96385
2022-12-01T06:01:52.811Z,96384
2022-12-01T06:03:52.924Z,96383
2022-12-01T06:04:52.803Z,96383
2022-12-01T06:05:52.797Z,96387
2022-12-01T06:06:52.772Z,96387
2022-12-01T06:07:52.952Z,96385
2022-12-01T06:08:52.767Z,96385
2022-12-01T06:09:52.784Z,96386
2022-12-01T06:10:52.842Z,96386
2022-12-01T06:11:52.859Z,96390
2022-12-01T06:12:52.848Z,96386
2022-12-01T06:14:52.782Z,96389
2022-12-01T06:16:52.819Z,96385
2022-12-01T06:18:52.785Z,96389
2022-12-01T06:19:52.796Z,96388
2022-12-01T06:20:52.834Z,96388
2022-12-01T06:21:52.853Z,96387
2022-12-01T06:22:52.846Z,96385
2022-12-01T06:23:52.841Z,96385
2022-12-01T06:25:52.795Z,96390
2022-12-01T06:26:52.950Z,96390
2022-12-01T06:27:52.890Z,96391
2022-12-01T06:29:53.235Z,96393
2022-12-01T06:30:56.536Z,96394
2022-12-01T06:31:52.895Z,96394
2022-12-01T06:32:52.867Z,96398
2022-12-01T06:33:52.871Z,96397
2022-12-01T06:34:53.077Z,96397
2022-12-01T06:35:52.860Z,96396
2022-12-01T06:36:52.867Z,96397
2022-12-01T06:37:52.915Z,96399
2022-12-01T06:38:52.838Z,96399
2022-12-01T06:39:53.148Z,96402
2022-12-01T06:41:52.850Z,96402
2022-12-01T06:42:52.907Z,96402
2022-12-01T06:43:52.900Z,96407
2022-12-01T06:44:53.080Z,96405
2022-12-01T06:45:57.808Z,96404
2022-12-01T06:46:53.121Z,96406
2022-12-01T06:47:52.916Z,96408
2022-12-01T06:48:52.927Z,96408
2022-12-01T06:49:53.029Z,96408
2022-12-01T06:51:52.874Z,96411
2022-12-01T06:53:52.933Z,96410
2022-12-01T06:54:52.897Z,96410
2022-12-01T06:55:52.898Z,96409
2022-12-01T06:56:52.892Z,96411
2022-12-01T06:57:52.938Z,96410
2022-12-01T06:58:52.964Z,96414
2022-12-01T06:59:53.185Z,96412
2022-12-01T07:00:53.131Z,96415
2022-12-01T07:01:53.021Z,96414
2022-12-01T07:02:52.972Z,96413
2022-12-01T07:03:52.969Z,96419
2022-12-01T07:04:52.948Z,96417
2022-12-01T07:06:52.974Z,96419
2022-12-01T07:07:59.142Z,96419
2022-12-01T07:08:52.961Z,96422
2022-12-01T07:11:52.953Z,96424
2022-12-01T07:12:52.954Z,96431
2022-12-01T07:13:52.966Z,96434
2022-12-01T07:14:52.989Z,96428
2022-12-01T07:15:52.933Z,96431
2022-12-01T07:16:53.074Z,96433
2022-12-01T07:17:52.936Z,96436
2022-12-01T07:18:52.967Z,96432
2022-12-01T07:19:52.977Z,96430
2022-12-01T07:20:52.965Z,96430
2022-12-01T07:21:52.982Z,96430
2022-12-01T07:22:52.947Z,96433
2022-12-01T07:23:53.018Z,96429
2022-12-01T07:24:52.982Z,96430
2022-12-01T07:25:52.944Z,96430
2022-12-01T07:26:52.950Z,96433
2022-12-01T07:27:53.001Z,96436
2022-12-01T07:28:52.999Z,96434
2022-12-01T07:29:53.039Z,96435
2022-12-01T07:30:53.014Z,96436
2022-12-01T07:31:53.014Z,96436
2022-12-01T07:32:53.045Z,96442
2022-12-01T07:33:53.020Z,96436
2022-12-01T07:34:53.014Z,96438
2022-12-01T07:35:53.031Z,96438
2022-12-01T07:36:52.984Z,96434
2022-12-01T07:37:53.010Z,96434
2022-12-01T07:38:53.018Z,96434
2022-12-01T07:39:53.028Z,96436
2022-12-01T07:40:53.008Z,96436
2022-12-01T07:41:52.994Z,96436
2022-12-01T07:42:53.044Z,96441
2022-12-01T07:43:53.028Z,96441
2022-12-01T07:44:53.073Z,96442
2022-12-01T07:45:53.083Z,96442
2022-12-01T07:46:53.010Z,96444
2022-12-01T07:47:53.093Z,96443
2022-12-01T07:48:53.029Z,96444
2022-12-01T07:49:53.040Z,96442
2022-12-01T07:50:53.027Z,96443
2022-12-01T07:51:53.059Z,96443
2022-12-01T07:52:53.112Z,96442
2022-12-01T07:53:53.021Z,96444
2022-12-01T07:54:53.077Z,96444
2022-12-01T07:55:53.079Z,96445
2022-12-01T07:56:53.028Z,96444
2022-12-01T07:57:53.079Z,96446
2022-12-01T07:58:53.088Z,96445
2022-12-01T07:59:53.046Z,96446
2022-12-01T08:00:53.078Z,96446
2022-12-01T08:01:53.134Z,96448
2022-12-01T08:02:53.162Z,96447
2022-12-01T08:03:53.092Z,96450
2022-12-01T08:04:53.133Z,96453
2022-12-01T08:05:53.097Z,96453
2022-12-01T08:06:53.055Z,96450
2022-12-01T08:07:53.181Z,96447
2022-12-01T08:08:53.113Z,96450
2022-12-01T08:09:53.118Z,96448
2022-12-01T08:10:53.080Z,96449
2022-12-01T08:11:53.088Z,96449
2022-12-01T08:12:53.158Z,96446
2022-12-01T08:13:53.130Z,96447
2022-12-01T08:14:53.155Z,96445
2022-12-01T08:15:53.136Z,96445
2022-12-01T08:16:53.123Z,96448
2022-12-01T08:17:53.125Z,96445
2022-12-01T08:18:53.130Z,96445
2022-12-01T08:19:53.191Z,96445
2022-12-01T08:20:53.141Z,96446
2022-12-01T08:21:53.131Z,96444
2022-12-01T08:22:53.140Z,96444
2022-12-01T08:24:53.128Z,96445
2022-12-01T08:25:53.170Z,96442
2022-12-01T08:26:53.152Z,96445
2022-12-01T08:27:53.113Z,96445
2022-12-01T08:28:53.163Z,96443
2022-12-01T08:29:53.192Z,96443
2022-12-01T08:30:53.296Z,96443
2022-12-01T08:31:53.157Z,96443
2022-12-01T08:32:53.154Z,96443
2022-12-01T08:33:53.190Z,96443
2022-12-01T08:35:53.181Z,96443
2022-12-01T08:36:53.179Z,96442
2022-12-01T08:37:53.156Z,96444
2022-12-01T08:38:53.141Z,96441
2022-12-01T08:40:53.215Z,96443
2022-12-01T08:41:53.180Z,96442
2022-12-01T08:42:53.217Z,96442
2022-12-01T08:45:53.245Z,96445
2022-12-01T08:47:53.223Z,96448
2022-12-01T08:48:53.198Z,96446
2022-12-01T08:49:53.197Z,96444
2022-12-01T08:50:53.229Z,96446
2022-12-01T08:51:53.184Z,96442
2022-12-01T08:52:53.270Z,96445
2022-12-01T08:53:53.206Z,96445
2022-12-01T08:54:53.213Z,96444
2022-12-01T08:55:53.219Z,96447
2022-12-01T08:56:53.211Z,96447
2022-12-01T08:58:53.212Z,96448
2022-12-01T08:59:53.192Z,96448
2022-12-01T09:00:53.200Z,96447
2022-12-01T09:01:53.303Z,96449
2022-12-01T09:02:53.393Z,96448
2022-12-01T09:03:53.255Z,96448
2022-12-01T09:04:53.239Z,96450
2022-12-01T09:05:53.264Z,96447
2022-12-01T09:06:53.196Z,96449
2022-12-01T09:07:53.252Z,96449
2022-12-01T09:08:53.308Z,96447
2022-12-01T09:09:53.250Z,96450
2022-12-01T09:10:53.209Z,96451
2022-12-01T09:11:53.235Z,96451
2022-12-01T09:12:53.248Z,96453
2022-12-01T09:13:54.738Z,96452
2022-12-01T09:14:53.225Z,96451
2022-12-01T09:15:53.281Z,96451
2022-12-01T09:16:53.250Z,96452
2022-12-01T09:17:53.211Z,96452
2022-12-01T09:18:53.312Z,96455
2022-12-01T09:19:53.289Z,96458
2022-12-01T09:20:53.272Z,96458
2022-12-01T09:21:53.283Z,96456
2022-12-01T09:22:53.273Z,96458
2022-12-01T09:24:53.252Z,96459
2022-12-01T09:26:53.298Z,96465
2022-12-01T09:27:53.295Z,96465
2022-12-01T09:28:53.285Z,96464
2022-12-01T09:29:53.282Z,96469
2022-12-01T09:30:53.251Z,96465
2022-12-01T09:32:53.313Z,96464
2022-12-01T09:33:53.340Z,96467
2022-12-01T09:34:53.318Z,96464
2022-12-01T09:35:53.305Z,96464
2022-12-01T09:36:53.297Z,96464
2022-12-01T09:37:53.284Z,96465
2022-12-01T09:38:53.328Z,96465
2022-12-01T09:39:53.315Z,96466
2022-12-01T09:40:53.330Z,96468
2022-12-01T09:41:53.316Z,96466
2022-12-01T09:42:53.278Z,96466
2022-12-01T09:43:53.439Z,96465
2022-12-01T09:44:53.279Z,96465
2022-12-01T09:45:53.332Z,96463
2022-12-01T09:46:53.420Z,96461
2022-12-01T09:47:53.331Z,96458
2022-12-01T09:48:53.369Z,96460
2022-12-01T09:49:53.334Z,96460
2022-12-01T09:50:53.354Z,96465
2022-12-01T09:51:53.388Z,96464
2022-12-01T09:52:53.314Z,96463
2022-12-01T09:53:53.347Z,96463
2022-12-01T09:54:53.349Z,96460
2022-12-01T09:55:53.370Z,96461
2022-12-01T09:56:53.375Z,96461
2022-12-01T09:57:53.309Z,96461
2022-12-01T09:59:53.349Z,96463
2022-12-01T10:00:53.449Z,96459
2022-12-01T10:01:53.438Z,96461
2022-12-01T10:02:53.333Z,96458
2022-12-01T10:03:53.377Z,96459
2022-12-01T10:04:53.461Z,96458
2022-12-01T10:06:24.950Z,96456
2022-12-01T10:06:53.376Z,96455
2022-12-01T10:07:53.419Z,96455
2022-12-01T10:08:53.375Z,96454
2022-12-01T10:09:53.400Z,96448
2022-12-01T10:10:53.347Z,96448
2022-12-01T10:11:53.403Z,96447
2022-12-01T10:12:53.355Z,96447
2022-12-01T10:13:53.363Z,96446
2022-12-01T10:14:53.424Z,96445
2022-12-01T10:15:53.448Z,96445
2022-12-01T10:17:53.381Z,96446
2022-12-01T10:18:53.382Z,96444
2022-12-01T10:20:53.413Z,96441
2022-12-01T10:21:53.434Z,96437
2022-12-01T10:22:53.412Z,96437
2022-12-01T10:23:53.405Z,96438
2022-12-01T10:24:53.423Z,96437
2022-12-01T10:25:53.392Z,96435
2022-12-01T10:26:53.463Z,96433
2022-12-01T10:27:53.433Z,96431
2022-12-01T10:28:53.407Z,96433
2022-12-01T10:29:53.877Z,96429
2022-12-01T10:30:53.462Z,96429
2022-12-01T10:31:53.509Z,96426
2022-12-01T10:32:53.526Z,96428
2022-12-01T10:33:53.428Z,96423
2022-12-01T10:34:54.185Z,96427
2022-12-01T10:35:53.432Z,96427
2022-12-01T10:36:53.444Z,96421
2022-12-01T10:37:53.456Z,96422
2022-12-01T10:38:53.444Z,96422
2022-12-01T10:39:53.459Z,96424
2022-12-01T10:40:53.477Z,96424
2022-12-01T10:41:53.437Z,96416
2022-12-01T10:42:53.469Z,96415
2022-12-01T10:43:53.438Z,96419
2022-12-01T10:44:53.508Z,96419
2022-12-01T10:45:53.630Z,96416
2022-12-01T10:46:53.450Z,96416
2022-12-01T10:47:57.570Z,96416
2022-12-01T10:48:53.433Z,96416
2022-12-01T10:49:53.741Z,96417
2022-12-01T10:50:53.472Z,96417
2022-12-01T10:51:53.454Z,96417
2022-12-01T10:52:53.499Z,96413
2022-12-01T10:53:53.446Z,96413
2022-12-01T10:54:53.525Z,96413
2022-12-01T10:55:53.459Z,96413
2022-12-01T10:56:53.473Z,96408
2022-12-01T10:57:53.507Z,96407
2022-12-01T10:58:53.524Z,96408
2022-12-01T10:59:53.522Z,96409
2022-12-01T11:01:00.596Z,96411
2022-12-01T11:01:53.793Z,96407
2022-12-01T11:02:53.806Z,96408
2022-12-01T11:03:53.540Z,96410
2022-12-01T11:04:53.539Z,96410
2022-12-01T11:05:53.526Z,96410
2022-12-01T11:06:54.762Z,96406
2022-12-01T11:07:53.631Z,96405
2022-12-01T11:08:53.547Z,96406
2022-12-01T11:09:53.521Z,96411
2022-12-01T11:10:53.531Z,96410
2022-12-01T11:11:53.491Z,96410
2022-12-01T11:12:53.581Z,96405
2022-12-01T11:13:53.553Z,96404
2022-12-01T11:14:53.502Z,96404
2022-12-01T11:15:53.521Z,96404
2022-12-01T11:16:53.580Z,96400
2022-12-01T11:17:53.538Z,96400
2022-12-01T11:18:53.625Z,96405
2022-12-01T11:19:53.737Z,96407
2022-12-01T11:20:53.555Z,96406
2022-12-01T11:21:53.564Z,96401
2022-12-01T11:22:53.615Z,96402
2022-12-01T11:23:53.522Z,96402
2022-12-01T11:24:53.544Z,96407
2022-12-01T11:25:53.588Z,96404
2022-12-01T11:26:53.610Z,96404
2022-12-01T11:27:53.609Z,96405
2022-12-01T11:28:53.539Z,96405
2022-12-01T11:29:53.535Z,96401
2022-12-01T11:30:56.598Z,96401
2022-12-01T11:31:53.623Z,96397
2022-12-01T11:34:53.587Z,96398
2022-12-01T11:35:53.624Z,96397
2022-12-01T11:38:13.137Z,96399
2022-12-01T11:38:53.552Z,96399
2022-12-01T11:39:53.635Z,96400
2022-12-01T11:40:53.602Z,96399
2022-12-01T11:41:53.607Z,96399
2022-12-01T11:42:53.640Z,96400
2022-12-01T11:44:01.482Z,96397
2022-12-01T11:44:53.619Z,96399
2022-12-01T11:47:07.720Z,96403
2022-12-01T11:47:53.646Z,96401
2022-12-01T11:49:53.920Z,96397
2022-12-01T11:50:53.663Z,96397
2022-12-01T11:51:53.628Z,96398
2022-12-01T11:52:53.673Z,96401
2022-12-01T11:53:53.647Z,96399
2022-12-01T11:54:53.647Z,96399
2022-12-01T11:57:17.793Z,96403
2022-12-01T11:57:53.676Z,96398
2022-12-01T11:58:53.689Z,96399
2022-12-01T12:00:53.690Z,96399
2022-12-01T12:01:53.681Z,96399
2022-12-01T12:02:53.701Z,96401
2022-12-01T12:03:53.755Z,96399
2022-12-01T12:04:53.659Z,96399
2022-12-01T12:05:57.590Z,96396
2022-12-01T12:06:53.609Z,96396
2022-12-01T12:07:53.761Z,96398
2022-12-01T12:08:53.740Z,96396
2022-12-01T12:09:53.653Z,96400
2022-12-01T12:10:53.770Z,96398
2022-12-01T12:11:53.677Z,96396
2022-12-01T12:12:53.692Z,96400
2022-12-01T12:13:53.669Z,96400
2022-12-01T12:14:53.676Z,96401
2022-12-01T12:15:53.739Z,96402
2022-12-01T12:18:53.717Z,96398
2022-12-01T12:20:08.073Z,96398
2022-12-01T12:20:53.758Z,96398
2022-12-01T12:21:53.706Z,96397
2022-12-01T12:22:55.615Z,96397
2022-12-01T12:23:53.669Z,96397
2022-12-01T12:24:53.719Z,96398
2022-12-01T12:25:53.745Z,96396
2022-12-01T12:26:53.716Z,96396
2022-12-01T12:28:53.719Z,96398
2022-12-01T12:29:53.708Z,96393
2022-12-01T12:31:53.698Z,96393
2022-12-01T12:32:53.778Z,96393
2022-12-01T12:33:53.723Z,96393
2022-12-01T12:34:53.755Z,96394
2022-12-01T12:35:53.741Z,96389
2022-12-01T12:36:53.701Z,96389
2022-12-01T12:37:53.739Z,96386
2022-12-01T12:38:53.745Z,96387
2022-12-01T12:39:53.744Z,96387
2022-12-01T12:40:53.786Z,96384
2022-12-01T12:41:53.751Z,96383
2022-12-01T12:42:53.790Z,96387
2022-12-01T12:43:53.721Z,96387
2022-12-01T12:44:53.769Z,96384
2022-12-01T12:45:53.880Z,96379
2022-12-01T12:46:53.772Z,96379
2022-12-01T12:47:53.790Z,96379
2022-12-01T12:49:18.572Z,96379
2022-12-01T12:49:53.771Z,96384
2022-12-01T12:50:53.796Z,96382
2022-12-01T12:51:53.778Z,96382
2022-12-01T12:52:53.734Z,96384
2022-12-01T12:53:53.774Z,96383
2022-12-01T12:54:53.738Z,96382
2022-12-01T12:55:53.768Z,96381
2022-12-01T12:56:53.746Z,96381
2022-12-01T12:57:53.746Z,96379
2022-12-01T12:58:53.776Z,96378
2022-12-01T12:59:53.763Z,96378
2022-12-01T13:00:53.871Z,96379
2022-12-01T13:01:53.825Z,96379
2022-12-01T13:02:53.822Z,96377
2022-12-01T13:03:53.823Z,96376
2022-12-01T13:04:53.777Z,96376
2022-12-01T13:05:53.767Z,96374
2022-12-01T13:06:53.762Z,96377
2022-12-01T13:07:53.866Z,96376
2022-12-01T13:08:53.804Z,96377
2022-12-01T13:09:53.803Z,96376
2022-12-01T13:10:53.818Z,96376
2022-12-01T13:11:53.816Z,96377
2022-12-01T13:12:53.824Z,96377
2022-12-01T13:13:53.832Z,96377
2022-12-01T13:14:58.001Z,96377
2022-12-01T13:17:53.826Z,96373
2022-12-01T13:18:53.833Z,96373
2022-12-01T13:19:53.837Z,96373
2022-12-01T13:20:53.826Z,96374
2022-12-01T13:21:53.913Z,96374
2022-12-01T13:22:53.834Z,96376
2022-12-01T13:23:53.823Z,96372
2022-12-01T13:24:53.849Z,96374
2022-12-01T13:25:53.816Z,96372
2022-12-01T13:26:53.851Z,96372
2022-12-01T13:27:53.856Z,96369
2022-12-01T13:28:53.863Z,96369
2022-12-01T13:29:53.924Z,96371
2022-12-01T13:30:53.895Z,96371
2022-12-01T13:31:53.866Z,96368
2022-12-01T13:32:53.872Z,96368
2022-12-01T13:33:53.846Z,96370
2022-12-01T13:34:53.869Z,96366
2022-12-01T13:36:22.561Z,96365
2022-12-01T13:36:53.893Z,96367
2022-12-01T13:37:53.880Z,96367
2022-12-01T13:39:53.931Z,96367
2022-12-01T13:40:53.892Z,96367
2022-12-01T13:41:53.900Z,96364
2022-12-01T13:42:53.886Z,96364
2022-12-01T13:44:53.940Z,96363
2022-12-01T13:45:53.866Z,96363
2022-12-01T13:46:53.985Z,96361
2022-12-01T13:47:53.933Z,96361
2022-12-01T13:49:53.904Z,96362
2022-12-01T13:50:53.901Z,96362
2022-12-01T13:51:53.925Z,96365
2022-12-01T13:52:53.861Z,96365
2022-12-01T13:53:53.894Z,96365
2022-12-01T13:54:53.911Z,96361
2022-12-01T13:55:53.910Z,96361
2022-12-01T13:56:53.911Z,96365
2022-12-01T13:57:53.925Z,96359
2022-12-01T13:58:53.933Z,96362
2022-12-01T13:59:53.989Z,96361
2022-12-01T14:00:54.019Z,96353
2022-12-01T14:01:53.964Z,96355
2022-12-01T14:03:53.961Z,96353
2022-12-01T14:04:53.973Z,96354
2022-12-01T14:06:54.003Z,96351
2022-12-01T14:07:53.980Z,96351
2022-12-01T14:08:53.967Z,96350
2022-12-01T14:09:53.948Z,96351
2022-12-01T14:10:53.939Z,96351
2022-12-01T14:11:53.949Z,96351